sensor_id;sensor_type;location;lat;lon;timestamp;P1;durP1;ratioP1;P2;durP2;ratioP2
14209;SDS011;7188;56.070;12.698;2023-06-26T00:00:28;4.47;;;4.18;;
14209;SDS011;7188;56.070;12.698;2023-06-26T00:02:54;5.22;;;4.28;;
14209;SDS011;7188;56.070;12.698;2023-06-26T00:05:19;5.07;;;4.67;;
14209;SDS011;7188;56.070;12.698;2023-06-26T00:07:45;4.05;;;3.80;;
14209;SDS011;7188;56.070;12.698;2023-06-26T00:10:11;4.88;;;4.47;;
14209;SDS011;7188;56.070;12.698;2023-06-26T00:12:36;3.63;;;3.42;;
14209;SDS011;7188;56.070;12.698;2023-06-26T00:15:02;4.60;;;4.20;;
14209;SDS011;7188;56.070;12.698;2023-06-26T00:17:28;4.80;;;4.40;;
14209;SDS011;7188;56.070;12.698;2023-06-26T00:19:53;4.78;;;4.38;;
14209;SDS011;7188;56.070;12.698;2023-06-26T00:22:20;7.13;;;4.28;;
14209;SDS011;7188;56.070;12.698;2023-06-26T00:24:46;5.13;;;4.38;;
14209;SDS011;7188;56.070;12.698;2023-06-26T00:27:12;4.90;;;4.55;;
14209;SDS011;7188;56.070;12.698;2023-06-26T00:29:37;4.70;;;4.35;;
14209;SDS011;7188;56.070;12.698;2023-06-26T00:32:03;4.28;;;3.97;;
14209;SDS011;7188;56.070;12.698;2023-06-26T00:34:29;4.00;;;3.70;;
14209;SDS011;7188;56.070;12.698;2023-06-26T00:36:55;4.43;;;4.03;;
14209;SDS011;7188;56.070;12.698;2023-06-26T00:39:21;5.28;;;4.78;;
14209;SDS011;7188;56.070;12.698;2023-06-26T00:41:47;5.03;;;4.45;;
14209;SDS011;7188;56.070;12.698;2023-06-26T00:44:13;6.47;;;4.13;;
14209;SDS011;7188;56.070;12.698;2023-06-26T00:46:39;4.53;;;4.22;;
14209;SDS011;7188;56.070;12.698;2023-06-26T00:49:04;4.60;;;4.20;;
14209;SDS011;7188;56.070;12.698;2023-06-26T00:51:30;5.03;;;4.63;;
14209;SDS011;7188;56.070;12.698;2023-06-26T00:53:56;5.50;;;5.10;;
14209;SDS011;7188;56.070;12.698;2023-06-26T00:56:22;5.15;;;4.72;;
14209;SDS011;7188;56.070;12.698;2023-06-26T00:58:49;4.63;;;4.38;;
14209;SDS011;7188;56.070;12.698;2023-06-26T01:01:15;5.20;;;4.90;;
14209;SDS011;7188;56.070;12.698;2023-06-26T01:03:43;4.78;;;4.38;;
14209;SDS011;7188;56.070;12.698;2023-06-26T01:06:11;6.80;;;5.07;;
14209;SDS011;7188;56.070;12.698;2023-06-26T01:08:38;6.18;;;5.57;;
14209;SDS011;7188;56.070;12.698;2023-06-26T01:11:05;6.40;;;5.78;;
14209;SDS011;7188;56.070;12.698;2023-06-26T01:13:31;7.18;;;6.53;;
14209;SDS011;7188;56.070;12.698;2023-06-26T01:15:58;6.93;;;6.05;;
14209;SDS011;7188;56.070;12.698;2023-06-26T01:18:25;6.65;;;6.05;;
14209;SDS011;7188;56.070;12.698;2023-06-26T01:20:51;8.25;;;7.43;;
14209;SDS011;7188;56.070;12.698;2023-06-26T01:23:29;6.97;;;6.25;;
14209;SDS011;7188;56.070;12.698;2023-06-26T01:28:41;7.28;;;6.68;;
14209;SDS011;7188;56.070;12.698;2023-06-26T01:31:08;7.80;;;7.03;;
14209;SDS011;7188;56.070;12.698;2023-06-26T01:33:35;7.88;;;7.13;;
14209;SDS011;7188;56.070;12.698;2023-06-26T01:36:01;7.35;;;6.72;;
14209;SDS011;7188;56.070;12.698;2023-06-26T01:38:28;8.90;;;8.10;;
14209;SDS011;7188;56.070;12.698;2023-06-26T01:40:54;11.20;;;10.05;;
14209;SDS011;7188;56.070;12.698;2023-06-26T01:43:27;9.75;;;8.77;;
14209;SDS011;7188;56.070;12.698;2023-06-26T01:46:23;8.82;;;7.95;;
14209;SDS011;7188;56.070;12.698;2023-06-26T01:49:03;9.10;;;8.20;;
14209;SDS011;7188;56.070;12.698;2023-06-26T01:51:45;7.65;;;6.95;;
14209;SDS011;7188;56.070;12.698;2023-06-26T01:54:32;10.30;;;9.33;;
14209;SDS011;7188;56.070;12.698;2023-06-26T01:57:02;11.05;;;9.48;;
14209;SDS011;7188;56.070;12.698;2023-06-26T01:59:30;10.30;;;9.32;;
14209;SDS011;7188;56.070;12.698;2023-06-26T02:02:00;9.77;;;8.83;;
14209;SDS011;7188;56.070;12.698;2023-06-26T02:04:26;8.40;;;7.60;;
14209;SDS011;7188;56.070;12.698;2023-06-26T02:06:52;9.73;;;8.73;;
14209;SDS011;7188;56.070;12.698;2023-06-26T02:09:17;10.03;;;9.00;;
14209;SDS011;7188;56.070;12.698;2023-06-26T02:11:43;7.75;;;7.05;;
14209;SDS011;7188;56.070;12.698;2023-06-26T02:14:08;10.68;;;9.65;;
14209;SDS011;7188;56.070;12.698;2023-06-26T02:16:36;12.45;;;11.27;;
14209;SDS011;7188;56.070;12.698;2023-06-26T02:19:01;11.23;;;10.13;;
14209;SDS011;7188;56.070;12.698;2023-06-26T02:21:27;13.10;;;11.75;;
14209;SDS011;7188;56.070;12.698;2023-06-26T02:23:52;11.27;;;10.13;;
14209;SDS011;7188;56.070;12.698;2023-06-26T02:26:18;13.07;;;10.37;;
14209;SDS011;7188;56.070;12.698;2023-06-26T02:28:43;10.63;;;9.63;;
14209;SDS011;7188;56.070;12.698;2023-06-26T02:31:09;10.90;;;9.65;;
14209;SDS011;7188;56.070;12.698;2023-06-26T02:33:35;9.10;;;8.20;;
14209;SDS011;7188;56.070;12.698;2023-06-26T02:36:00;11.95;;;10.77;;
14209;SDS011;7188;56.070;12.698;2023-06-26T02:38:26;8.75;;;7.97;;
14209;SDS011;7188;56.070;12.698;2023-06-26T02:40:52;9.68;;;8.68;;
14209;SDS011;7188;56.070;12.698;2023-06-26T02:43:17;9.60;;;8.43;;
14209;SDS011;7188;56.070;12.698;2023-06-26T02:45:43;11.07;;;9.23;;
14209;SDS011;7188;56.070;12.698;2023-06-26T02:48:08;8.80;;;8.00;;
14209;SDS011;7188;56.070;12.698;2023-06-26T02:50:34;8.07;;;7.38;;
14209;SDS011;7188;56.070;12.698;2023-06-26T02:52:59;9.53;;;8.53;;
14209;SDS011;7188;56.070;12.698;2023-06-26T02:55:25;9.13;;;8.23;;
14209;SDS011;7188;56.070;12.698;2023-06-26T02:57:51;8.32;;;7.53;;
14209;SDS011;7188;56.070;12.698;2023-06-26T03:00:17;8.60;;;7.82;;
14209;SDS011;7188;56.070;12.698;2023-06-26T03:02:43;7.47;;;6.78;;
14209;SDS011;7188;56.070;12.698;2023-06-26T03:05:08;9.70;;;8.32;;
14209;SDS011;7188;56.070;12.698;2023-06-26T03:07:34;9.52;;;8.73;;
14209;SDS011;7188;56.070;12.698;2023-06-26T03:10:00;7.68;;;7.07;;
14209;SDS011;7188;56.070;12.698;2023-06-26T03:12:25;9.10;;;7.32;;
14209;SDS011;7188;56.070;12.698;2023-06-26T03:14:51;10.15;;;8.45;;
14209;SDS011;7188;56.070;12.698;2023-06-26T03:17:16;8.40;;;7.60;;
14209;SDS011;7188;56.070;12.698;2023-06-26T03:19:42;8.70;;;7.93;;
14209;SDS011;7188;56.070;12.698;2023-06-26T03:22:08;8.48;;;7.68;;
14209;SDS011;7188;56.070;12.698;2023-06-26T03:24:34;8.68;;;7.85;;
14209;SDS011;7188;56.070;12.698;2023-06-26T03:26:59;9.05;;;7.43;;
14209;SDS011;7188;56.070;12.698;2023-06-26T03:29:25;8.82;;;7.93;;
14209;SDS011;7188;56.070;12.698;2023-06-26T03:31:51;8.98;;;8.00;;
14209;SDS011;7188;56.070;12.698;2023-06-26T03:34:16;6.93;;;6.30;;
14209;SDS011;7188;56.070;12.698;2023-06-26T03:36:42;7.50;;;6.80;;
14209;SDS011;7188;56.070;12.698;2023-06-26T03:39:07;8.10;;;7.10;;
14209;SDS011;7188;56.070;12.698;2023-06-26T03:41:33;8.30;;;7.47;;
14209;SDS011;7188;56.070;12.698;2023-06-26T03:43:59;7.75;;;7.05;;
14209;SDS011;7188;56.070;12.698;2023-06-26T03:46:25;6.50;;;6.00;;
14209;SDS011;7188;56.070;12.698;2023-06-26T03:48:51;7.70;;;6.88;;
14209;SDS011;7188;56.070;12.698;2023-06-26T03:51:17;6.28;;;5.68;;
14209;SDS011;7188;56.070;12.698;2023-06-26T03:53:42;5.97;;;5.40;;
14209;SDS011;7188;56.070;12.698;2023-06-26T03:56:08;6.13;;;5.63;;
14209;SDS011;7188;56.070;12.698;2023-06-26T03:58:34;6.28;;;5.78;;
14209;SDS011;7188;56.070;12.698;2023-06-26T04:00:59;5.43;;;5.00;;
14209;SDS011;7188;56.070;12.698;2023-06-26T04:03:25;5.97;;;5.47;;
14209;SDS011;7188;56.070;12.698;2023-06-26T04:05:51;5.13;;;4.57;;
14209;SDS011;7188;56.070;12.698;2023-06-26T04:08:16;5.82;;;5.30;;
14209;SDS011;7188;56.070;12.698;2023-06-26T04:10:42;7.50;;;5.03;;
14209;SDS011;7188;56.070;12.698;2023-06-26T04:13:10;6.38;;;5.72;;
14209;SDS011;7188;56.070;12.698;2023-06-26T04:15:36;5.82;;;5.22;;
14209;SDS011;7188;56.070;12.698;2023-06-26T04:18:01;5.28;;;4.78;;
14209;SDS011;7188;56.070;12.698;2023-06-26T04:20:28;4.90;;;4.32;;
14209;SDS011;7188;56.070;12.698;2023-06-26T04:22:53;5.53;;;5.10;;
14209;SDS011;7188;56.070;12.698;2023-06-26T04:25:19;5.35;;;4.75;;
14209;SDS011;7188;56.070;12.698;2023-06-26T04:27:45;4.43;;;4.05;;
14209;SDS011;7188;56.070;12.698;2023-06-26T04:30:10;4.20;;;3.88;;
14209;SDS011;7188;56.070;12.698;2023-06-26T04:32:37;3.97;;;3.67;;
14209;SDS011;7188;56.070;12.698;2023-06-26T04:35:03;5.60;;;3.40;;
14209;SDS011;7188;56.070;12.698;2023-06-26T04:37:29;3.60;;;3.25;;
14209;SDS011;7188;56.070;12.698;2023-06-26T04:39:54;3.38;;;3.08;;
14209;SDS011;7188;56.070;12.698;2023-06-26T04:42:20;3.75;;;3.45;;
14209;SDS011;7188;56.070;12.698;2023-06-26T04:44:46;7.88;;;3.38;;
14209;SDS011;7188;56.070;12.698;2023-06-26T04:47:12;3.05;;;2.72;;
14209;SDS011;7188;56.070;12.698;2023-06-26T04:49:40;2.90;;;2.50;;
14209;SDS011;7188;56.070;12.698;2023-06-26T04:52:11;3.50;;;3.20;;
14209;SDS011;7188;56.070;12.698;2023-06-26T04:54:39;3.30;;;2.88;;
14209;SDS011;7188;56.070;12.698;2023-06-26T04:57:05;3.30;;;3.00;;
14209;SDS011;7188;56.070;12.698;2023-06-26T04:59:31;3.10;;;2.90;;
14209;SDS011;7188;56.070;12.698;2023-06-26T05:01:56;2.58;;;2.38;;
14209;SDS011;7188;56.070;12.698;2023-06-26T05:04:22;3.58;;;3.30;;
14209;SDS011;7188;56.070;12.698;2023-06-26T05:06:48;2.42;;;2.33;;
14209;SDS011;7188;56.070;12.698;2023-06-26T05:09:13;3.22;;;2.92;;
14209;SDS011;7188;56.070;12.698;2023-06-26T05:11:39;3.38;;;3.08;;
14209;SDS011;7188;56.070;12.698;2023-06-26T05:14:05;3.28;;;2.97;;
14209;SDS011;7188;56.070;12.698;2023-06-26T05:16:34;3.47;;;2.97;;
14209;SDS011;7188;56.070;12.698;2023-06-26T05:19:00;2.92;;;2.47;;
14209;SDS011;7188;56.070;12.698;2023-06-26T05:21:27;4.60;;;3.00;;
14209;SDS011;7188;56.070;12.698;2023-06-26T05:23:53;3.35;;;3.15;;
14209;SDS011;7188;56.070;12.698;2023-06-26T05:26:21;2.70;;;2.50;;
14209;SDS011;7188;56.070;12.698;2023-06-26T05:28:47;3.40;;;2.83;;
14209;SDS011;7188;56.070;12.698;2023-06-26T05:31:14;3.63;;;2.70;;
14209;SDS011;7188;56.070;12.698;2023-06-26T05:33:40;2.58;;;2.45;;
14209;SDS011;7188;56.070;12.698;2023-06-26T05:36:09;1.60;;;1.50;;
14209;SDS011;7188;56.070;12.698;2023-06-26T05:38:35;1.65;;;1.40;;
14209;SDS011;7188;56.070;12.698;2023-06-26T05:41:01;1.98;;;1.88;;
14209;SDS011;7188;56.070;12.698;2023-06-26T05:43:27;1.95;;;1.83;;
14209;SDS011;7188;56.070;12.698;2023-06-26T05:45:52;1.55;;;1.45;;
14209;SDS011;7188;56.070;12.698;2023-06-26T05:48:18;1.90;;;1.65;;
14209;SDS011;7188;56.070;12.698;2023-06-26T05:50:44;2.13;;;1.85;;
14209;SDS011;7188;56.070;12.698;2023-06-26T05:53:13;1.83;;;1.17;;
14209;SDS011;7188;56.070;12.698;2023-06-26T05:55:39;1.20;;;0.98;;
14209;SDS011;7188;56.070;12.698;2023-06-26T05:58:07;1.02;;;1.02;;
14209;SDS011;7188;56.070;12.698;2023-06-26T06:00:34;1.60;;;1.50;;
14209;SDS011;7188;56.070;12.698;2023-06-26T06:03:00;1.23;;;1.23;;
14209;SDS011;7188;56.070;12.698;2023-06-26T06:05:26;1.10;;;1.10;;
14209;SDS011;7188;56.070;12.698;2023-06-26T06:07:52;2.35;;;1.35;;
14209;SDS011;7188;56.070;12.698;2023-06-26T06:10:17;1.15;;;1.05;;
14209;SDS011;7188;56.070;12.698;2023-06-26T06:12:43;1.33;;;1.23;;
14209;SDS011;7188;56.070;12.698;2023-06-26T06:15:08;1.40;;;1.30;;
14209;SDS011;7188;56.070;12.698;2023-06-26T06:17:34;3.22;;;1.08;;
14209;SDS011;7188;56.070;12.698;2023-06-26T06:20:00;1.33;;;1.27;;
14209;SDS011;7188;56.070;12.698;2023-06-26T06:22:25;1.40;;;1.30;;
14209;SDS011;7188;56.070;12.698;2023-06-26T06:24:51;1.70;;;1.10;;
14209;SDS011;7188;56.070;12.698;2023-06-26T06:27:17;3.00;;;1.42;;
14209;SDS011;7188;56.070;12.698;2023-06-26T06:29:43;1.27;;;1.27;;
14209;SDS011;7188;56.070;12.698;2023-06-26T06:32:08;1.15;;;1.15;;
14209;SDS011;7188;56.070;12.698;2023-06-26T06:34:34;0.90;;;0.90;;
14209;SDS011;7188;56.070;12.698;2023-06-26T06:37:00;1.05;;;1.00;;
14209;SDS011;7188;56.070;12.698;2023-06-26T06:39:26;1.10;;;1.10;;
14209;SDS011;7188;56.070;12.698;2023-06-26T06:41:52;1.27;;;1.02;;
14209;SDS011;7188;56.070;12.698;2023-06-26T06:44:18;3.92;;;1.70;;
14209;SDS011;7188;56.070;12.698;2023-06-26T06:46:43;1.20;;;1.05;;
14209;SDS011;7188;56.070;12.698;2023-06-26T06:49:09;3.45;;;1.20;;
14209;SDS011;7188;56.070;12.698;2023-06-26T06:51:34;1.08;;;0.95;;
14209;SDS011;7188;56.070;12.698;2023-06-26T06:54:01;1.15;;;0.70;;
14209;SDS011;7188;56.070;12.698;2023-06-26T06:56:27;0.63;;;0.63;;
14209;SDS011;7188;56.070;12.698;2023-06-26T06:58:53;0.90;;;0.90;;
14209;SDS011;7188;56.070;12.698;2023-06-26T07:01:19;0.90;;;0.90;;
14209;SDS011;7188;56.070;12.698;2023-06-26T07:03:44;2.08;;;0.85;;
14209;SDS011;7188;56.070;12.698;2023-06-26T07:06:10;1.17;;;1.05;;
14209;SDS011;7188;56.070;12.698;2023-06-26T07:08:35;0.88;;;0.88;;
14209;SDS011;7188;56.070;12.698;2023-06-26T07:11:01;0.95;;;0.95;;
14209;SDS011;7188;56.070;12.698;2023-06-26T07:13:28;1.95;;;1.00;;
14209;SDS011;7188;56.070;12.698;2023-06-26T07:15:53;1.85;;;1.08;;
14209;SDS011;7188;56.070;12.698;2023-06-26T07:18:19;0.90;;;0.90;;
14209;SDS011;7188;56.070;12.698;2023-06-26T07:20:44;1.33;;;1.00;;
14209;SDS011;7188;56.070;12.698;2023-06-26T07:23:10;1.35;;;1.20;;
14209;SDS011;7188;56.070;12.698;2023-06-26T07:25:36;1.55;;;1.45;;
14209;SDS011;7188;56.070;12.698;2023-06-26T07:28:02;1.30;;;1.15;;
14209;SDS011;7188;56.070;12.698;2023-06-26T07:30:28;2.85;;;1.02;;
14209;SDS011;7188;56.070;12.698;2023-06-26T07:32:53;1.35;;;1.23;;
14209;SDS011;7188;56.070;12.698;2023-06-26T07:38:03;1.50;;;1.40;;
14209;SDS011;7188;56.070;12.698;2023-06-26T07:40:29;1.58;;;1.45;;
14209;SDS011;7188;56.070;12.698;2023-06-26T07:42:54;2.08;;;1.30;;
14209;SDS011;7188;56.070;12.698;2023-06-26T07:45:20;4.53;;;1.50;;
14209;SDS011;7188;56.070;12.698;2023-06-26T07:47:46;1.33;;;1.23;;
14209;SDS011;7188;56.070;12.698;2023-06-26T07:50:11;1.67;;;1.27;;
14209;SDS011;7188;56.070;12.698;2023-06-26T07:52:37;2.25;;;1.10;;
14209;SDS011;7188;56.070;12.698;2023-06-26T07:55:03;1.67;;;1.20;;
14209;SDS011;7188;56.070;12.698;2023-06-26T07:57:29;2.15;;;1.48;;
14209;SDS011;7188;56.070;12.698;2023-06-26T08:00:00;2.05;;;1.85;;
14209;SDS011;7188;56.070;12.698;2023-06-26T08:02:25;1.63;;;1.52;;
14209;SDS011;7188;56.070;12.698;2023-06-26T08:04:51;1.50;;;1.40;;
14209;SDS011;7188;56.070;12.698;2023-06-26T08:07:35;1.67;;;1.38;;
14209;SDS011;7188;56.070;12.698;2023-06-26T08:10:01;1.70;;;1.50;;
14209;SDS011;7188;56.070;12.698;2023-06-26T08:12:27;3.15;;;1.58;;
14209;SDS011;7188;56.070;12.698;2023-06-26T08:15:11;2.28;;;1.92;;
14209;SDS011;7188;56.070;12.698;2023-06-26T08:17:37;1.90;;;1.80;;
14209;SDS011;7188;56.070;12.698;2023-06-26T08:20:04;2.72;;;1.90;;
14209;SDS011;7188;56.070;12.698;2023-06-26T08:22:32;1.85;;;1.50;;
14209;SDS011;7188;56.070;12.698;2023-06-26T08:24:58;2.15;;;1.85;;
14209;SDS011;7188;56.070;12.698;2023-06-26T08:27:24;2.05;;;1.95;;
14209;SDS011;7188;56.070;12.698;2023-06-26T08:29:50;2.15;;;2.05;;
14209;SDS011;7188;56.070;12.698;2023-06-26T08:32:16;3.83;;;1.95;;
14209;SDS011;7188;56.070;12.698;2023-06-26T08:34:42;1.95;;;1.85;;
14209;SDS011;7188;56.070;12.698;2023-06-26T08:37:09;1.73;;;1.63;;
14209;SDS011;7188;56.070;12.698;2023-06-26T08:39:35;3.38;;;1.77;;
14209;SDS011;7188;56.070;12.698;2023-06-26T08:42:00;2.08;;;1.98;;
14209;SDS011;7188;56.070;12.698;2023-06-26T08:44:26;2.55;;;1.85;;
14209;SDS011;7188;56.070;12.698;2023-06-26T08:46:52;3.40;;;2.05;;
14209;SDS011;7188;56.070;12.698;2023-06-26T08:51:45;2.22;;;1.77;;
14209;SDS011;7188;56.070;12.698;2023-06-26T08:54:17;2.03;;;1.92;;
14209;SDS011;7188;56.070;12.698;2023-06-26T08:56:46;2.38;;;2.03;;
14209;SDS011;7188;56.070;12.698;2023-06-26T08:59:14;1.90;;;1.80;;
14209;SDS011;7188;56.070;12.698;2023-06-26T09:01:41;1.98;;;1.88;;
14209;SDS011;7188;56.070;12.698;2023-06-26T09:04:07;2.97;;;1.73;;
14209;SDS011;7188;56.070;12.698;2023-06-26T09:06:33;3.40;;;2.13;;
14209;SDS011;7188;56.070;12.698;2023-06-26T09:08:59;2.45;;;2.25;;
14209;SDS011;7188;56.070;12.698;2023-06-26T09:11:24;1.92;;;1.83;;
14209;SDS011;7188;56.070;12.698;2023-06-26T09:13:50;2.75;;;2.38;;
14209;SDS011;7188;56.070;12.698;2023-06-26T09:16:16;1.98;;;1.83;;
14209;SDS011;7188;56.070;12.698;2023-06-26T09:18:42;2.05;;;1.83;;
14209;SDS011;7188;56.070;12.698;2023-06-26T09:21:10;3.97;;;2.30;;
14209;SDS011;7188;56.070;12.698;2023-06-26T09:23:36;2.35;;;2.20;;
14209;SDS011;7188;56.070;12.698;2023-06-26T09:26:07;5.95;;;2.33;;
14209;SDS011;7188;56.070;12.698;2023-06-26T09:28:33;2.92;;;2.17;;
14209;SDS011;7188;56.070;12.698;2023-06-26T09:31:00;2.10;;;1.98;;
14209;SDS011;7188;56.070;12.698;2023-06-26T09:33:33;2.70;;;2.50;;
14209;SDS011;7188;56.070;12.698;2023-06-26T09:36:01;2.65;;;2.45;;
14209;SDS011;7188;56.070;12.698;2023-06-26T09:38:43;3.58;;;2.60;;
14209;SDS011;7188;56.070;12.698;2023-06-26T09:41:08;2.40;;;2.20;;
14209;SDS011;7188;56.070;12.698;2023-06-26T09:43:34;2.20;;;2.00;;
14209;SDS011;7188;56.070;12.698;2023-06-26T09:46:10;2.63;;;2.45;;
14209;SDS011;7188;56.070;12.698;2023-06-26T09:48:57;2.72;;;2.50;;
14209;SDS011;7188;56.070;12.698;2023-06-26T09:51:33;2.95;;;2.75;;
14209;SDS011;7188;56.070;12.698;2023-06-26T09:54:00;3.30;;;2.95;;
14209;SDS011;7188;56.070;12.698;2023-06-26T09:56:38;2.90;;;2.55;;
14209;SDS011;7188;56.070;12.698;2023-06-26T09:59:05;3.25;;;2.30;;
14209;SDS011;7188;56.070;12.698;2023-06-26T10:01:39;3.05;;;2.47;;
14209;SDS011;7188;56.070;12.698;2023-06-26T10:04:06;2.78;;;2.28;;
14209;SDS011;7188;56.070;12.698;2023-06-26T10:06:33;2.72;;;2.58;;
14209;SDS011;7188;56.070;12.698;2023-06-26T10:09:01;2.90;;;2.70;;
14209;SDS011;7188;56.070;12.698;2023-06-26T10:11:41;5.35;;;3.20;;
14209;SDS011;7188;56.070;12.698;2023-06-26T10:14:20;4.00;;;2.72;;
14209;SDS011;7188;56.070;12.698;2023-06-26T10:16:49;3.03;;;2.70;;
14209;SDS011;7188;56.070;12.698;2023-06-26T10:19:16;3.08;;;2.83;;
14209;SDS011;7188;56.070;12.698;2023-06-26T10:21:51;5.20;;;3.35;;
14209;SDS011;7188;56.070;12.698;2023-06-26T10:24:18;3.10;;;2.72;;
14209;SDS011;7188;56.070;12.698;2023-06-26T10:26:45;2.72;;;2.53;;
14209;SDS011;7188;56.070;12.698;2023-06-26T10:29:15;3.88;;;2.80;;
14209;SDS011;7188;56.070;12.698;2023-06-26T10:31:43;6.25;;;3.28;;
14209;SDS011;7188;56.070;12.698;2023-06-26T10:34:11;3.97;;;3.58;;
14209;SDS011;7188;56.070;12.698;2023-06-26T10:36:37;4.65;;;2.90;;
14209;SDS011;7188;56.070;12.698;2023-06-26T10:39:04;3.17;;;2.38;;
14209;SDS011;7188;56.070;12.698;2023-06-26T10:41:36;2.72;;;2.53;;
14209;SDS011;7188;56.070;12.698;2023-06-26T10:44:10;3.75;;;3.15;;
14209;SDS011;7188;56.070;12.698;2023-06-26T10:46:55;3.08;;;2.67;;
14209;SDS011;7188;56.070;12.698;2023-06-26T10:49:27;3.33;;;2.97;;
14209;SDS011;7188;56.070;12.698;2023-06-26T10:51:53;4.15;;;2.97;;
14209;SDS011;7188;56.070;12.698;2023-06-26T10:54:22;4.28;;;3.05;;
14209;SDS011;7188;56.070;12.698;2023-06-26T11:01:57;3.42;;;3.15;;
14209;SDS011;7188;56.070;12.698;2023-06-26T11:04:40;3.03;;;2.92;;
14209;SDS011;7188;56.070;12.698;2023-06-26T11:07:23;3.97;;;3.55;;
14209;SDS011;7188;56.070;12.698;2023-06-26T11:09:57;4.30;;;4.00;;
14209;SDS011;7188;56.070;12.698;2023-06-26T11:12:39;4.07;;;3.67;;
14209;SDS011;7188;56.070;12.698;2023-06-26T11:15:13;3.30;;;3.10;;
14209;SDS011;7188;56.070;12.698;2023-06-26T11:17:40;3.75;;;3.45;;
14209;SDS011;7188;56.070;12.698;2023-06-26T11:20:07;3.63;;;3.33;;
14209;SDS011;7188;56.070;12.698;2023-06-26T11:22:34;3.38;;;3.17;;
14209;SDS011;7188;56.070;12.698;2023-06-26T11:25:02;4.30;;;3.20;;
14209;SDS011;7188;56.070;12.698;2023-06-26T11:30:06;3.83;;;3.63;;
14209;SDS011;7188;56.070;12.698;2023-06-26T11:32:37;3.25;;;3.05;;
14209;SDS011;7188;56.070;12.698;2023-06-26T11:35:03;3.80;;;3.50;;
14209;SDS011;7188;56.070;12.698;2023-06-26T11:37:29;4.57;;;3.42;;
14209;SDS011;7188;56.070;12.698;2023-06-26T11:39:58;4.80;;;3.88;;
14209;SDS011;7188;56.070;12.698;2023-06-26T11:42:24;5.15;;;3.70;;
14209;SDS011;7188;56.070;12.698;2023-06-26T11:44:50;3.63;;;3.17;;
14209;SDS011;7188;56.070;12.698;2023-06-26T11:47:17;4.22;;;3.50;;
14209;SDS011;7188;56.070;12.698;2023-06-26T11:49:44;3.83;;;3.55;;
14209;SDS011;7188;56.070;12.698;2023-06-26T11:52:11;6.20;;;3.60;;
14209;SDS011;7188;56.070;12.698;2023-06-26T11:54:37;4.32;;;3.25;;
14209;SDS011;7188;56.070;12.698;2023-06-26T11:57:04;3.80;;;3.45;;
14209;SDS011;7188;56.070;12.698;2023-06-26T11:59:49;4.10;;;3.55;;
14209;SDS011;7188;56.070;12.698;2023-06-26T12:02:15;4.95;;;3.58;;
14209;SDS011;7188;56.070;12.698;2023-06-26T12:04:42;5.53;;;3.42;;
14209;SDS011;7188;56.070;12.698;2023-06-26T12:07:09;3.63;;;3.33;;
14209;SDS011;7188;56.070;12.698;2023-06-26T12:09:42;3.72;;;3.50;;
14209;SDS011;7188;56.070;12.698;2023-06-26T12:12:09;4.50;;;4.20;;
14209;SDS011;7188;56.070;12.698;2023-06-26T12:14:35;4.97;;;3.33;;
14209;SDS011;7188;56.070;12.698;2023-06-26T12:17:05;3.72;;;3.42;;
14209;SDS011;7188;56.070;12.698;2023-06-26T12:19:33;3.97;;;3.78;;
14209;SDS011;7188;56.070;12.698;2023-06-26T12:22:05;3.67;;;3.47;;
14209;SDS011;7188;56.070;12.698;2023-06-26T12:24:31;5.07;;;3.92;;
14209;SDS011;7188;56.070;12.698;2023-06-26T12:26:57;4.50;;;4.10;;
14209;SDS011;7188;56.070;12.698;2023-06-26T12:29:32;4.43;;;4.10;;
14209;SDS011;7188;56.070;12.698;2023-06-26T12:31:58;4.97;;;4.57;;
14209;SDS011;7188;56.070;12.698;2023-06-26T12:34:31;5.50;;;3.80;;
14209;SDS011;7188;56.070;12.698;2023-06-26T12:37:04;4.65;;;4.07;;
14209;SDS011;7188;56.070;12.698;2023-06-26T12:40:05;4.40;;;4.03;;
14209;SDS011;7188;56.070;12.698;2023-06-26T12:42:25;4.18;;;3.88;;
14209;SDS011;7188;56.070;12.698;2023-06-26T12:44:52;3.88;;;3.58;;
14209;SDS011;7188;56.070;12.698;2023-06-26T12:47:23;4.13;;;3.83;;
14209;SDS011;7188;56.070;12.698;2023-06-26T12:49:53;4.85;;;3.92;;
14209;SDS011;7188;56.070;12.698;2023-06-26T12:52:20;4.30;;;4.00;;
14209;SDS011;7188;56.070;12.698;2023-06-26T12:54:46;4.82;;;4.53;;
14209;SDS011;7188;56.070;12.698;2023-06-26T12:57:16;4.40;;;3.97;;
14209;SDS011;7188;56.070;12.698;2023-06-26T12:59:42;5.13;;;4.55;;
14209;SDS011;7188;56.070;12.698;2023-06-26T13:02:08;6.55;;;4.68;;
14209;SDS011;7188;56.070;12.698;2023-06-26T13:04:34;6.68;;;4.30;;
14209;SDS011;7188;56.070;12.698;2023-06-26T13:07:00;4.65;;;3.92;;
14209;SDS011;7188;56.070;12.698;2023-06-26T13:09:26;4.97;;;4.45;;
14209;SDS011;7188;56.070;12.698;2023-06-26T13:11:58;5.63;;;4.07;;
14209;SDS011;7188;56.070;12.698;2023-06-26T13:14:24;4.15;;;3.72;;
14209;SDS011;7188;56.070;12.698;2023-06-26T13:16:50;4.03;;;3.67;;
14209;SDS011;7188;56.070;12.698;2023-06-26T13:19:15;5.22;;;3.70;;
14209;SDS011;7188;56.070;12.698;2023-06-26T13:21:41;4.38;;;4.07;;
14209;SDS011;7188;56.070;12.698;2023-06-26T13:24:07;5.30;;;4.40;;
14209;SDS011;7188;56.070;12.698;2023-06-26T13:26:33;7.40;;;4.53;;
14209;SDS011;7188;56.070;12.698;2023-06-26T13:28:59;5.15;;;3.58;;
14209;SDS011;7188;56.070;12.698;2023-06-26T13:31:25;4.38;;;2.72;;
14209;SDS011;7188;56.070;12.698;2023-06-26T13:33:51;2.10;;;2.00;;
14209;SDS011;7188;56.070;12.698;2023-06-26T13:36:19;2.83;;;2.17;;
14209;SDS011;7188;56.070;12.698;2023-06-26T13:41:32;4.88;;;1.58;;
14209;SDS011;7188;56.070;12.698;2023-06-26T13:43:58;2.90;;;1.77;;
14209;SDS011;7188;56.070;12.698;2023-06-26T13:46:24;1.60;;;1.50;;
14209;SDS011;7188;56.070;12.698;2023-06-26T13:48:49;3.13;;;1.65;;
14209;SDS011;7188;56.070;12.698;2023-06-26T13:51:15;3.40;;;2.15;;
14209;SDS011;7188;56.070;12.698;2023-06-26T13:53:40;8.70;;;1.83;;
14209;SDS011;7188;56.070;12.698;2023-06-26T13:56:06;3.33;;;1.85;;
14209;SDS011;7188;56.070;12.698;2023-06-26T13:58:34;5.65;;;2.15;;
14209;SDS011;7188;56.070;12.698;2023-06-26T14:01:01;5.47;;;2.05;;
14209;SDS011;7188;56.070;12.698;2023-06-26T14:03:28;6.38;;;1.60;;
14209;SDS011;7188;56.070;12.698;2023-06-26T14:05:53;6.07;;;2.08;;
14209;SDS011;7188;56.070;12.698;2023-06-26T14:08:19;7.30;;;2.13;;
14209;SDS011;7188;56.070;12.698;2023-06-26T14:10:44;7.43;;;2.15;;
14209;SDS011;7188;56.070;12.698;2023-06-26T14:13:10;4.65;;;2.28;;
14209;SDS011;7188;56.070;12.698;2023-06-26T14:15:40;5.55;;;2.53;;
14209;SDS011;7188;56.070;12.698;2023-06-26T14:18:06;5.40;;;2.63;;
14209;SDS011;7188;56.070;12.698;2023-06-26T14:20:32;12.10;;;2.95;;
14209;SDS011;7188;56.070;12.698;2023-06-26T14:22:58;10.20;;;3.40;;
14209;SDS011;7188;56.070;12.698;2023-06-26T14:25:24;12.82;;;4.28;;
14209;SDS011;7188;56.070;12.698;2023-06-26T14:27:53;8.77;;;3.60;;
14209;SDS011;7188;56.070;12.698;2023-06-26T14:30:19;8.95;;;3.38;;
14209;SDS011;7188;56.070;12.698;2023-06-26T14:32:45;12.13;;;4.28;;
14209;SDS011;7188;56.070;12.698;2023-06-26T14:35:10;7.28;;;3.38;;
14209;SDS011;7188;56.070;12.698;2023-06-26T14:37:36;8.90;;;3.28;;
14209;SDS011;7188;56.070;12.698;2023-06-26T14:40:06;10.48;;;4.00;;
14209;SDS011;7188;56.070;12.698;2023-06-26T14:42:32;9.70;;;3.65;;
14209;SDS011;7188;56.070;12.698;2023-06-26T14:44:58;8.80;;;3.53;;
14209;SDS011;7188;56.070;12.698;2023-06-26T14:47:24;9.50;;;3.38;;
14209;SDS011;7188;56.070;12.698;2023-06-26T14:49:50;4.70;;;3.40;;
14209;SDS011;7188;56.070;12.698;2023-06-26T14:52:15;3.80;;;2.58;;
14209;SDS011;7188;56.070;12.698;2023-06-26T14:54:41;8.68;;;3.35;;
14209;SDS011;7188;56.070;12.698;2023-06-26T14:57:07;3.55;;;2.50;;
14209;SDS011;7188;56.070;12.698;2023-06-26T14:59:33;5.95;;;3.30;;
14209;SDS011;7188;56.070;12.698;2023-06-26T15:01:59;4.15;;;2.88;;
14209;SDS011;7188;56.070;12.698;2023-06-26T15:04:25;13.18;;;4.00;;